Terminal Aerodrome Forecast
Issued by NWS

Current Version | Previous Version | Graphics & Text | Print | Product List | Glossary On
Versions: 1 2 3 4 5 6 7 8 9 10 11 12 13 14 15 16 17 18 19 20 21 22
000
FTUS41 KILN 161300 AAA
TAFLUK
TAF AMD
KLUK 161336Z 1614/1712 25012G20KT P6SM VCSH OVC016
     FM161500 24012G23KT P6SM OVC016
     FM170000 25010G17KT P6SM OVC019
     FM170400 26010KT P6SM OVC019=

USA.gov is the U.S. government's official web portal to all federal, state and local government web resources and services.